createdAt,value
2018-12-20T00:00:19.785Z,82.47
2018-12-20T00:02:48.316Z,82.37
2018-12-20T00:05:16.507Z,87.96
2018-12-20T00:07:44.801Z,88.92
2018-12-20T00:10:12.980Z,89.20
2018-12-20T00:12:41.524Z,85.29
2018-12-20T00:15:09.982Z,85.65
2018-12-20T00:17:43.791Z,81.92
2018-12-20T00:20:11.923Z,81.99
2018-12-20T00:22:40.182Z,82.71
2018-12-20T00:25:09.654Z,83.46
2018-12-20T00:27:37.878Z,84.04
2018-12-20T00:30:06.219Z,86.84
2018-12-20T00:32:34.501Z,84.58
2018-12-20T00:35:02.943Z,89.81
2018-12-20T00:37:31.223Z,89.84
2018-12-20T00:40:06.249Z,91.57
2018-12-20T00:42:29.793Z,91.47
2018-12-20T00:44:58.731Z,89.92
2018-12-20T00:47:27.054Z,86.77
2018-12-20T00:49:55.749Z,84.28
2018-12-20T00:52:23.967Z,87.00
2018-12-20T00:54:52.136Z,83.94
2018-12-20T00:57:20.359Z,83.29
2018-12-20T00:59:48.717Z,84.07
2018-12-20T01:02:16.990Z,82.86
2018-12-20T01:04:45.214Z,82.44
2018-12-20T01:07:13.474Z,82.92
2018-12-20T01:09:41.693Z,87.07
2018-12-20T01:12:09.948Z,87.11
2018-12-20T01:14:45.174Z,84.10
2018-12-20T01:17:08.551Z,84.75
2018-12-20T01:19:36.757Z,83.82
2018-12-20T01:22:04.932Z,83.26
2018-12-20T01:24:33.226Z,82.31
2018-12-20T01:27:01.443Z,82.36
2018-12-20T01:29:29.651Z,85.67
2018-12-20T01:31:57.813Z,87.84
2018-12-20T01:34:26.058Z,90.13
2018-12-20T01:36:54.564Z,92.46
2018-12-20T01:39:23.072Z,86.54
2018-12-20T01:41:51.391Z,81.79
2018-12-20T01:44:19.641Z,81.83
2018-12-20T01:46:47.893Z,82.76
2018-12-20T01:49:16.147Z,85.77
2018-12-20T01:51:44.655Z,88.53
2018-12-20T01:54:12.936Z,88.25
2018-12-20T01:56:41.392Z,87.59
2018-12-20T01:59:09.822Z,84.56
2018-12-20T02:01:38.270Z,80.19
2018-12-20T02:04:06.800Z,81.76
2018-12-20T02:06:35.199Z,80.80
2018-12-20T02:09:05.902Z,81.08
2018-12-20T02:11:34.190Z,81.90
2018-12-20T02:14:02.501Z,82.59
2018-12-20T02:16:30.712Z,83.03
2018-12-20T02:18:58.961Z,83.25
2018-12-20T02:21:27.164Z,84.83
2018-12-20T02:23:55.500Z,83.93
2018-12-20T02:26:24.034Z,86.94
2018-12-20T02:28:52.346Z,89.92
2018-12-20T02:31:20.656Z,88.81
2018-12-20T02:33:48.971Z,89.52
2018-12-20T02:36:17.358Z,90.50
2018-12-20T02:38:46.315Z,92.00
2018-12-20T02:41:15.253Z,92.01
2018-12-20T02:43:43.440Z,88.66
2018-12-20T02:46:11.648Z,83.16
2018-12-20T02:48:39.906Z,82.68
2018-12-20T02:51:08.065Z,84.72
2018-12-20T02:53:36.253Z,84.07
2018-12-20T02:56:04.615Z,83.66
2018-12-20T02:58:32.901Z,84.21
2018-12-20T03:01:01.004Z,83.75
2018-12-20T03:03:29.088Z,84.92
2018-12-20T03:05:57.910Z,86.10
2018-12-20T03:08:26.162Z,85.82
2018-12-20T03:10:54.451Z,85.83
2018-12-20T03:13:22.554Z,85.01
2018-12-20T03:15:50.750Z,84.63
2018-12-20T03:18:19.131Z,86.72
2018-12-20T03:20:47.554Z,88.77
2018-12-20T03:23:15.763Z,89.78
2018-12-20T03:25:43.945Z,91.40
2018-12-20T03:28:12.188Z,89.69
2018-12-20T03:30:40.522Z,89.67
2018-12-20T03:33:10.490Z,86.79
2018-12-20T03:35:39.011Z,85.36
2018-12-20T03:38:07.204Z,82.82
2018-12-20T03:40:35.715Z,84.50
2018-12-20T03:43:04.232Z,85.04
2018-12-20T03:45:32.576Z,86.54
2018-12-20T03:48:00.989Z,87.31
2018-12-20T03:50:29.422Z,87.80
2018-12-20T03:52:57.801Z,88.93
2018-12-20T03:55:26.029Z,89.20
2018-12-20T03:57:54.222Z,89.30
2018-12-20T04:00:22.452Z,89.17
2018-12-20T04:02:50.687Z,89.85
2018-12-20T04:05:19.160Z,90.14
2018-12-20T04:07:47.384Z,90.10
2018-12-20T04:10:16.410Z,89.69
2018-12-20T04:12:44.826Z,90.57
2018-12-20T04:15:13.436Z,91.50
2018-12-20T04:17:41.618Z,90.65
2018-12-20T04:20:10.302Z,91.42
2018-12-20T04:22:38.671Z,94.41
2018-12-20T04:25:07.030Z,96.57
2018-12-20T04:27:38.626Z,95.07
2018-12-20T04:30:07.342Z,90.98
2018-12-20T04:32:36.333Z,88.13
2018-12-20T04:35:05.555Z,88.99
2018-12-20T04:37:34.068Z,90.74
2018-12-20T04:40:02.455Z,92.88
2018-12-20T04:42:30.829Z,88.37
2018-12-20T04:44:59.106Z,87.31
2018-12-20T04:47:28.111Z,85.63
2018-12-20T04:49:56.762Z,86.47
2018-12-20T04:52:25.685Z,89.76
2018-12-20T04:54:53.826Z,91.78
2018-12-20T04:57:22.905Z,91.04
2018-12-20T04:59:52.905Z,87.46
2018-12-20T05:02:22.057Z,87.61
2018-12-20T05:04:50.485Z,84.32
2018-12-20T05:07:18.758Z,81.57
2018-12-20T05:09:47.240Z,81.91
2018-12-20T05:12:15.475Z,83.33
2018-12-20T05:14:43.809Z,86.62
2018-12-20T05:17:12.367Z,88.27
2018-12-20T05:19:40.852Z,86.52
2018-12-20T05:22:09.258Z,88.95
2018-12-20T05:24:37.528Z,89.07
2018-12-20T05:27:05.794Z,87.94
2018-12-20T05:29:34.249Z,88.30
2018-12-20T05:32:02.506Z,88.19
2018-12-20T05:34:30.810Z,90.59
2018-12-20T05:37:01.942Z,92.15
2018-12-20T05:39:30.323Z,92.95
2018-12-20T05:41:58.622Z,93.30
2018-12-20T05:44:27.850Z,93.05
2018-12-20T05:46:56.083Z,92.20
2018-12-20T05:49:25.770Z,91.06
2018-12-20T05:51:54.561Z,89.34
2018-12-20T05:54:24.829Z,89.15
2018-12-20T05:56:58.688Z,91.17
2018-12-20T05:59:28.596Z,90.91
2018-12-20T06:01:57.699Z,89.90
2018-12-20T06:04:26.225Z,91.54
2018-12-20T06:06:55.016Z,88.07
2018-12-20T06:09:24.019Z,88.04
2018-12-20T06:14:36.901Z,92.02
2018-12-20T06:17:07.941Z,90.75
2018-12-20T06:19:36.413Z,91.47
2018-12-20T06:22:04.737Z,91.73
2018-12-20T06:24:34.959Z,88.74
2018-12-20T06:27:07.948Z,88.35
2018-12-20T06:29:38.825Z,86.92
2018-12-20T06:32:07.888Z,89.03
2018-12-20T06:34:36.045Z,86.88
2018-12-20T06:37:04.202Z,85.46
2018-12-20T06:39:33.324Z,81.75
2018-12-20T06:42:01.644Z,83.66
2018-12-20T06:44:29.778Z,84.06
2018-12-20T06:46:57.885Z,81.86
2018-12-20T06:49:34.773Z,85.27
2018-12-20T06:52:09.497Z,88.87
2018-12-20T06:54:42.357Z,88.03
2018-12-20T06:57:13.393Z,87.85
2018-12-20T06:59:45.690Z,86.33
2018-12-20T07:02:14.089Z,86.87
2018-12-20T07:04:42.669Z,86.42
2018-12-20T07:07:11.250Z,84.63
2018-12-20T07:09:39.582Z,83.74
2018-12-20T07:12:07.805Z,82.41
2018-12-20T07:14:42.848Z,83.06
2018-12-20T07:17:14.319Z,82.45
2018-12-20T07:19:45.212Z,84.66
2018-12-20T07:22:13.626Z,84.80
2018-12-20T07:24:42.062Z,88.10
2018-12-20T07:27:10.492Z,80.91
2018-12-20T07:29:39.802Z,82.02
2018-12-20T07:32:08.198Z,85.94
2018-12-20T07:34:36.851Z,82.45
2018-12-20T07:37:05.145Z,84.65
2018-12-20T07:39:33.452Z,86.94
2018-12-20T07:42:02.481Z,86.75
2018-12-20T07:44:34.079Z,76.74
2018-12-20T07:47:07.753Z,79.27
2018-12-20T07:49:35.988Z,77.49
2018-12-20T07:52:07.086Z,77.00
2018-12-20T07:54:35.476Z,79.20
2018-12-20T07:57:06.625Z,81.00
2018-12-20T07:59:37.200Z,84.71
2018-12-20T08:02:06.164Z,78.34
2018-12-20T08:04:35.173Z,80.39
2018-12-20T08:07:03.487Z,78.45
2018-12-20T08:09:31.845Z,82.99
2018-12-20T08:12:01.305Z,79.04
2018-12-20T08:14:29.479Z,81.60
2018-12-20T08:16:58.009Z,85.08
2018-12-20T08:19:26.157Z,82.62
2018-12-20T08:21:56.507Z,83.29
2018-12-20T08:24:24.606Z,80.13
2018-12-20T08:26:57.232Z,79.17
2018-12-20T08:29:26.128Z,80.11
2018-12-20T08:31:55.336Z,81.47
2018-12-20T08:34:25.475Z,84.36
2018-12-20T08:36:55.133Z,81.09
2018-12-20T08:39:23.351Z,78.61
2018-12-20T08:41:52.060Z,79.72
2018-12-20T08:44:22.611Z,80.87
2018-12-20T08:46:54.467Z,77.22
2018-12-20T08:49:21.213Z,77.38
2018-12-20T08:51:50.373Z,78.20
2018-12-20T08:54:18.522Z,77.34
2018-12-20T08:56:46.670Z,80.79
2018-12-20T08:59:15.996Z,82.18
2018-12-20T09:01:46.436Z,86.78
2018-12-20T09:04:16.251Z,85.78
2018-12-20T09:06:44.713Z,85.83
2018-12-20T09:09:14.894Z,80.19
2018-12-20T09:11:46.874Z,81.82
2018-12-20T09:14:17.432Z,79.25
2018-12-20T09:16:50.004Z,80.26
2018-12-20T09:19:19.120Z,86.49
2018-12-20T09:21:50.987Z,81.87
2018-12-20T09:24:23.012Z,77.26
2018-12-20T09:26:54.660Z,79.96
2018-12-20T09:29:33.170Z,84.15
2018-12-20T09:32:06.277Z,83.81
2018-12-20T09:34:34.720Z,77.21
2018-12-20T09:37:03.719Z,76.81
2018-12-20T09:39:34.941Z,76.78
2018-12-20T09:42:03.157Z,81.86
2018-12-20T09:47:18.870Z,85.77
2018-12-20T09:49:48.833Z,85.48
2018-12-20T09:52:24.906Z,82.28
2018-12-20T09:54:57.589Z,77.23
2018-12-20T09:57:30.334Z,78.20
2018-12-20T09:59:58.770Z,79.39
2018-12-20T10:02:26.891Z,80.37
2018-12-20T10:04:55.287Z,79.88
2018-12-20T10:07:27.814Z,80.87
2018-12-20T10:09:56.456Z,80.53
2018-12-20T10:12:24.712Z,79.02
2018-12-20T10:14:53.076Z,79.08
2018-12-20T10:17:23.574Z,79.74
2018-12-20T10:19:52.787Z,81.80
2018-12-20T10:22:21.616Z,85.32
2018-12-20T10:24:52.212Z,88.07
2018-12-20T10:27:20.435Z,83.67
2018-12-20T10:29:52.414Z,79.35
2018-12-20T10:32:20.747Z,79.42
2018-12-20T10:34:48.939Z,79.47
2018-12-20T10:37:17.252Z,80.97
2018-12-20T10:39:46.296Z,83.20
2018-12-20T10:42:14.451Z,82.16
2018-12-20T10:44:43.129Z,81.26
2018-12-20T10:47:17.382Z,82.00
2018-12-20T10:49:45.565Z,81.38
2018-12-20T10:52:13.720Z,79.90
2018-12-20T10:54:42.637Z,81.92
2018-12-20T10:57:13.398Z,78.74
2018-12-20T10:59:42.862Z,79.94
2018-12-20T11:02:16.632Z,81.00
2018-12-20T11:04:50.179Z,84.08
2018-12-20T11:07:24.803Z,81.49
2018-12-20T11:09:58.814Z,82.36
2018-12-20T11:12:32.243Z,79.31
2018-12-20T11:15:00.435Z,82.28
2018-12-20T11:17:37.050Z,82.96
2018-12-20T11:20:01.038Z,78.70
2018-12-20T11:22:29.760Z,80.20
2018-12-20T11:24:59.165Z,82.31
2018-12-20T11:27:27.551Z,81.42
2018-12-20T11:29:56.040Z,76.91
2018-12-20T11:32:24.982Z,78.94
2018-12-20T11:34:54.043Z,81.15
2018-12-20T11:37:22.424Z,80.18
2018-12-20T11:39:59.206Z,80.18
2018-12-20T11:42:23.468Z,76.93
2018-12-20T11:44:52.300Z,77.88
2018-12-20T11:47:26.023Z,81.37
2018-12-20T11:49:54.268Z,79.48
2018-12-20T11:52:22.595Z,78.72
2018-12-20T11:54:54.128Z,83.90
2018-12-20T11:57:22.403Z,80.16
2018-12-20T11:59:52.083Z,80.16
2018-12-20T12:02:24.674Z,81.66
2018-12-20T12:04:51.387Z,78.90
2018-12-20T12:07:19.710Z,77.97
2018-12-20T12:09:48.468Z,76.77
2018-12-20T12:12:16.658Z,78.14
2018-12-20T12:14:44.990Z,82.36
2018-12-20T12:17:13.191Z,83.37
2018-12-20T12:19:41.432Z,79.14
2018-12-20T12:22:09.560Z,81.91
2018-12-20T12:24:37.787Z,77.99
2018-12-20T12:27:06.424Z,78.01
2018-12-20T12:29:34.949Z,77.82
2018-12-20T12:32:03.203Z,79.82
2018-12-20T12:34:31.512Z,82.07
2018-12-20T12:36:59.674Z,79.11
2018-12-20T12:39:28.098Z,78.08
2018-12-20T12:41:56.212Z,82.03
2018-12-20T12:44:24.376Z,78.85
2018-12-20T12:46:53.029Z,80.16
2018-12-20T12:49:24.070Z,80.18
2018-12-20T12:51:53.219Z,79.71
2018-12-20T12:54:21.969Z,80.44
2018-12-20T12:56:50.729Z,78.99
2018-12-20T12:59:19.115Z,78.13
2018-12-20T13:01:48.016Z,77.32
2018-12-20T13:04:16.265Z,79.56
2018-12-20T13:06:44.998Z,79.23
2018-12-20T13:09:13.145Z,77.50
2018-12-20T13:11:41.320Z,78.71
2018-12-20T13:14:09.611Z,78.57
2018-12-20T13:16:38.707Z,79.63
2018-12-20T13:19:07.369Z,79.63
2018-12-20T13:21:36.051Z,79.12
2018-12-20T13:24:04.659Z,80.03
2018-12-20T13:26:32.898Z,79.65
2018-12-20T13:29:01.014Z,79.68
2018-12-20T13:31:29.224Z,79.90
2018-12-20T13:33:57.331Z,79.83
2018-12-20T13:36:25.456Z,82.71
2018-12-20T13:38:54.232Z,79.85
2018-12-20T13:41:22.670Z,80.24
2018-12-20T13:43:50.836Z,80.41
2018-12-20T13:46:19.036Z,81.00
2018-12-20T13:48:47.157Z,81.37
2018-12-20T13:51:15.291Z,82.23
2018-12-20T13:53:43.480Z,81.54
2018-12-20T13:56:11.533Z,82.17
2018-12-20T13:58:39.805Z,84.31
2018-12-20T14:01:08.065Z,85.38
2018-12-20T14:03:36.617Z,83.47
2018-12-20T14:06:06.586Z,86.10
2018-12-20T14:08:34.809Z,88.75
2018-12-20T14:11:03.275Z,88.32
2018-12-20T14:13:32.162Z,86.94
2018-12-20T14:16:00.730Z,82.89
2018-12-20T14:18:31.174Z,84.50
2018-12-20T14:21:00.589Z,84.91
2018-12-20T14:23:29.284Z,87.67
2018-12-20T14:25:58.607Z,85.18
2018-12-20T14:28:27.293Z,82.91
2018-12-20T14:30:55.604Z,83.86
2018-12-20T14:33:23.827Z,87.51
2018-12-20T14:38:35.667Z,87.71
2018-12-20T14:41:03.937Z,87.56
2018-12-20T14:43:32.351Z,88.19
2018-12-20T14:46:00.535Z,86.71
2018-12-20T14:48:30.150Z,88.34
2018-12-20T14:50:59.756Z,85.57
2018-12-20T14:53:28.843Z,87.35
2018-12-20T14:55:57.527Z,89.09
2018-12-20T14:58:25.850Z,87.55
2018-12-20T15:00:55.555Z,87.36
2018-12-20T15:03:24.730Z,88.26
2018-12-20T15:05:54.181Z,88.40
2018-12-20T15:08:23.050Z,88.65
2018-12-20T15:10:51.812Z,88.67
2018-12-20T15:13:20.498Z,89.08
2018-12-20T15:15:49.361Z,89.61
2018-12-20T15:18:18.241Z,89.25
2018-12-20T15:20:46.973Z,89.79
2018-12-20T15:23:16.067Z,90.29
2018-12-20T15:25:46.063Z,92.50
2018-12-20T15:28:15.138Z,93.29
2018-12-20T15:30:44.902Z,93.37
2018-12-20T15:33:14.317Z,91.45
2018-12-20T15:35:43.268Z,90.58
2018-12-20T15:38:12.270Z,91.95
2018-12-20T15:40:42.182Z,92.89
2018-12-20T15:43:10.961Z,92.81
2018-12-20T15:45:42.718Z,88.86
2018-12-20T15:48:11.464Z,86.66
2018-12-20T15:50:39.887Z,88.66
2018-12-20T15:53:08.696Z,88.21
2018-12-20T15:55:37.306Z,88.34
2018-12-20T15:58:06.651Z,88.19
2018-12-20T16:00:35.280Z,90.02
2018-12-20T16:03:03.867Z,87.98
2018-12-20T16:05:34.563Z,88.35
2018-12-20T16:08:08.086Z,85.41
2018-12-20T16:10:36.830Z,86.48
2018-12-20T16:13:05.254Z,88.28
2018-12-20T16:15:33.448Z,89.48
2018-12-20T16:18:02.380Z,92.60
2018-12-20T16:20:30.900Z,91.86
2018-12-20T16:23:00.360Z,92.17
2018-12-20T16:25:29.421Z,88.73
2018-12-20T16:27:57.850Z,86.73
2018-12-20T16:30:27.851Z,86.51
2018-12-20T16:32:56.241Z,88.33
2018-12-20T16:35:24.485Z,89.79
2018-12-20T16:37:52.710Z,89.66
2018-12-20T16:40:21.633Z,88.76
2018-12-20T16:42:50.090Z,88.73
2018-12-20T16:45:18.446Z,89.28
2018-12-20T16:47:47.296Z,88.31
2018-12-20T16:50:16.460Z,87.95
2018-12-20T16:52:44.676Z,90.34
2018-12-20T16:55:13.343Z,90.22
2018-12-20T16:57:41.970Z,92.75
2018-12-20T17:00:13.903Z,92.71
2018-12-20T17:02:42.579Z,93.47
2018-12-20T17:05:10.879Z,94.62
2018-12-20T17:07:39.470Z,93.33
2018-12-20T17:10:08.533Z,92.40
2018-12-20T17:12:36.894Z,91.87
2018-12-20T17:15:07.064Z,88.37
2018-12-20T17:17:35.384Z,88.58
2018-12-20T17:20:04.944Z,91.54
2018-12-20T17:22:33.374Z,90.62
2018-12-20T17:25:01.456Z,94.99
2018-12-20T17:27:30.233Z,94.59
2018-12-20T17:29:58.513Z,94.00
2018-12-20T17:32:27.284Z,96.31
2018-12-20T17:34:56.000Z,95.51
2018-12-20T17:37:24.773Z,89.90
2018-12-20T17:39:53.378Z,90.20
2018-12-20T17:42:21.844Z,89.50
2018-12-20T17:44:50.147Z,89.35
2018-12-20T17:47:20.144Z,86.11
2018-12-20T17:49:48.701Z,88.35
2018-12-20T17:52:17.064Z,92.03
2018-12-20T17:54:49.316Z,88.56
2018-12-20T17:57:17.573Z,89.36
2018-12-20T17:59:45.788Z,91.43
2018-12-20T18:02:14.618Z,89.87
2018-12-20T18:04:43.083Z,93.14
2018-12-20T18:07:12.108Z,92.31
2018-12-20T18:09:41.144Z,91.66
2018-12-20T18:12:10.412Z,90.31
2018-12-20T18:14:41.449Z,89.95
2018-12-20T18:17:11.043Z,91.44
2018-12-20T18:19:39.646Z,91.60
2018-12-20T18:22:09.789Z,91.37
2018-12-20T18:24:39.889Z,92.71
2018-12-20T18:27:10.095Z,92.27
2018-12-20T18:29:38.818Z,92.89
2018-12-20T18:32:08.490Z,94.33
2018-12-20T18:34:37.403Z,94.10
2018-12-20T18:37:06.498Z,95.18
2018-12-20T18:39:35.927Z,94.96
2018-12-20T18:42:07.768Z,94.20
2018-12-20T18:44:36.086Z,94.18
2018-12-20T18:47:04.490Z,96.13
2018-12-20T18:49:33.131Z,96.33
2018-12-20T18:52:01.359Z,97.50
2018-12-20T18:54:29.661Z,98.21
2018-12-20T18:56:57.878Z,98.86
2018-12-20T18:59:26.718Z,96.24
2018-12-20T19:01:55.188Z,94.05
2018-12-20T19:04:23.375Z,93.96
2018-12-20T19:06:51.728Z,94.57
2018-12-20T19:09:21.536Z,95.34
2018-12-20T19:11:50.908Z,95.90
2018-12-20T19:14:19.550Z,95.79
2018-12-20T19:16:49.585Z,97.65
2018-12-20T19:19:18.495Z,98.67
2018-12-20T19:21:48.163Z,98.17
2018-12-20T19:24:18.441Z,97.30
2018-12-20T19:26:48.394Z,96.63
2018-12-20T19:29:19.394Z,96.54
2018-12-20T19:31:50.374Z,96.40
2018-12-20T19:34:18.874Z,97.66
2018-12-20T19:36:48.140Z,97.41
2018-12-20T19:39:18.264Z,96.54
2018-12-20T19:41:47.525Z,97.11
2018-12-20T19:44:15.855Z,96.57
2018-12-20T19:46:44.152Z,96.18
2018-12-20T19:49:12.360Z,96.97
2018-12-20T19:51:40.571Z,98.33
2018-12-20T19:54:08.737Z,100.00
2018-12-20T19:56:37.678Z,100.00
2018-12-20T19:59:06.286Z,100.00
2018-12-20T20:01:34.872Z,98.18
2018-12-20T20:04:03.427Z,97.63
2018-12-20T20:06:31.597Z,97.24
2018-12-20T20:09:00.071Z,96.03
2018-12-20T20:11:29.590Z,94.88
2018-12-20T20:13:58.877Z,94.49
2018-12-20T20:16:27.284Z,96.98
2018-12-20T20:18:56.669Z,97.18
2018-12-20T20:21:24.864Z,96.61
2018-12-20T20:23:53.598Z,95.66
2018-12-20T20:26:23.055Z,95.22
2018-12-20T20:28:51.262Z,97.06
2018-12-20T20:31:19.582Z,98.08
2018-12-20T20:33:48.395Z,99.46
2018-12-20T20:36:16.591Z,99.69
2018-12-20T20:38:44.716Z,100.00
2018-12-20T20:41:14.487Z,99.36
2018-12-20T20:43:43.087Z,98.54
2018-12-20T20:46:13.003Z,97.17
2018-12-20T20:48:41.590Z,97.76
2018-12-20T20:51:10.128Z,98.39
2018-12-20T20:53:38.393Z,96.48
2018-12-20T20:56:06.630Z,95.40
2018-12-20T20:58:35.100Z,94.69
2018-12-20T21:01:04.623Z,95.54
2018-12-20T21:03:34.009Z,96.72
2018-12-20T21:06:03.343Z,96.31
2018-12-20T21:08:32.466Z,96.20
2018-12-20T21:11:00.778Z,95.59
2018-12-20T21:13:29.098Z,95.31
2018-12-20T21:15:58.134Z,96.57
2018-12-20T21:18:26.731Z,96.82
2018-12-20T21:20:55.053Z,98.49
2018-12-20T21:23:23.201Z,99.87
2018-12-20T21:25:51.475Z,100.00
2018-12-20T21:28:19.981Z,99.38
2018-12-20T21:30:48.352Z,98.07
2018-12-20T21:33:20.396Z,98.30
2018-12-20T21:35:48.628Z,97.35
2018-12-20T21:38:17.105Z,96.31
2018-12-20T21:40:46.110Z,95.92
2018-12-20T21:43:14.889Z,96.46
2018-12-20T21:45:47.941Z,97.22
2018-12-20T21:48:16.553Z,97.90
2018-12-20T21:50:46.054Z,99.77
2018-12-20T21:53:21.019Z,100.00
2018-12-20T21:55:51.099Z,100.00
2018-12-20T21:58:24.670Z,100.00
2018-12-20T22:00:53.474Z,100.00
2018-12-20T22:03:23.116Z,100.00
2018-12-20T22:05:51.344Z,100.00
2018-12-20T22:08:19.972Z,100.00
2018-12-20T22:10:48.206Z,100.00
2018-12-20T22:13:17.732Z,99.39
2018-12-20T22:15:45.883Z,98.81
2018-12-20T22:18:14.013Z,98.05
2018-12-20T22:20:47.301Z,98.54
2018-12-20T22:23:12.431Z,98.96
2018-12-20T22:25:40.609Z,98.38
2018-12-20T22:28:08.720Z,97.92
2018-12-20T22:30:37.403Z,98.03
2018-12-20T22:33:05.573Z,97.37
2018-12-20T22:35:33.802Z,95.96
2018-12-20T22:38:01.917Z,97.05
2018-12-20T22:40:30.064Z,98.56
2018-12-20T22:42:58.209Z,98.62
2018-12-20T22:45:26.489Z,98.93
2018-12-20T22:47:54.754Z,98.72
2018-12-20T22:50:22.895Z,97.99
2018-12-20T22:52:51.039Z,97.28
2018-12-20T22:55:19.258Z,95.81
2018-12-20T22:57:47.506Z,97.36
2018-12-20T23:00:16.964Z,98.33
2018-12-20T23:02:45.226Z,94.95
2018-12-20T23:05:13.421Z,93.96
2018-12-20T23:07:41.592Z,97.09
2018-12-20T23:10:09.917Z,98.98
2018-12-20T23:12:38.157Z,96.42
2018-12-20T23:15:06.481Z,94.73
2018-12-20T23:17:34.668Z,96.37
2018-12-20T23:20:03.000Z,97.12
2018-12-20T23:22:31.159Z,97.23
2018-12-20T23:24:59.411Z,95.34
2018-12-20T23:27:27.617Z,95.08
2018-12-20T23:29:55.776Z,95.63
2018-12-20T23:32:24.033Z,95.38
2018-12-20T23:34:52.203Z,94.85
2018-12-20T23:37:20.411Z,94.75
2018-12-20T23:39:48.591Z,94.35
2018-12-20T23:42:16.928Z,94.59
2018-12-20T23:44:45.282Z,94.98
2018-12-20T23:47:13.564Z,95.95
2018-12-20T23:49:41.709Z,96.99
2018-12-20T23:52:09.866Z,97.64
2018-12-20T23:54:38.023Z,97.94
2018-12-20T23:57:06.236Z,99.04
2018-12-20T23:59:34.467Z,98.89
